sensor_id;sensor_type;location;lat;lon;timestamp;P1;durP1;ratioP1;P2;durP2;ratioP2
60665;SDS011;59128;44.642;21.188;2022-12-18T00:01:33;36.03;;;25.83;;
60665;SDS011;59128;44.642;21.188;2022-12-18T00:04:00;37.15;;;26.92;;
60665;SDS011;59128;44.642;21.188;2022-12-18T00:06:30;35.92;;;25.85;;
60665;SDS011;59128;44.642;21.188;2022-12-18T00:08:58;34.30;;;25.48;;
60665;SDS011;59128;44.642;21.188;2022-12-18T00:11:25;34.13;;;24.70;;
60665;SDS011;59128;44.642;21.188;2022-12-18T00:13:53;34.83;;;25.60;;
60665;SDS011;59128;44.642;21.188;2022-12-18T00:16:20;36.60;;;26.10;;
60665;SDS011;59128;44.642;21.188;2022-12-18T00:18:46;34.80;;;25.90;;
60665;SDS011;59128;44.642;21.188;2022-12-18T00:21:13;34.23;;;24.70;;
60665;SDS011;59128;44.642;21.188;2022-12-18T00:23:40;37.50;;;26.85;;
60665;SDS011;59128;44.642;21.188;2022-12-18T00:26:09;36.08;;;26.48;;
60665;SDS011;59128;44.642;21.188;2022-12-18T00:28:35;35.75;;;26.17;;
60665;SDS011;59128;44.642;21.188;2022-12-18T00:31:02;37.60;;;27.58;;
60665;SDS011;59128;44.642;21.188;2022-12-18T00:33:29;37.70;;;26.90;;
60665;SDS011;59128;44.642;21.188;2022-12-18T00:35:59;36.80;;;26.90;;
60665;SDS011;59128;44.642;21.188;2022-12-18T00:38:25;37.95;;;28.13;;
60665;SDS011;59128;44.642;21.188;2022-12-18T00:40:51;38.03;;;27.15;;
60665;SDS011;59128;44.642;21.188;2022-12-18T00:43:17;40.92;;;30.40;;
60665;SDS011;59128;44.642;21.188;2022-12-18T00:45:43;38.50;;;26.95;;
60665;SDS011;59128;44.642;21.188;2022-12-18T00:48:09;37.38;;;26.52;;
60665;SDS011;59128;44.642;21.188;2022-12-18T00:50:35;37.13;;;26.77;;
60665;SDS011;59128;44.642;21.188;2022-12-18T00:53:01;36.67;;;26.30;;
60665;SDS011;59128;44.642;21.188;2022-12-18T00:55:27;37.28;;;26.92;;
60665;SDS011;59128;44.642;21.188;2022-12-18T00:57:53;38.40;;;26.80;;
60665;SDS011;59128;44.642;21.188;2022-12-18T01:00:20;38.07;;;27.43;;
60665;SDS011;59128;44.642;21.188;2022-12-18T01:02:46;38.72;;;27.77;;
60665;SDS011;59128;44.642;21.188;2022-12-18T01:05:12;37.60;;;26.42;;
60665;SDS011;59128;44.642;21.188;2022-12-18T01:07:38;39.40;;;27.38;;
60665;SDS011;59128;44.642;21.188;2022-12-18T01:10:05;35.83;;;26.80;;
60665;SDS011;59128;44.642;21.188;2022-12-18T01:12:31;38.42;;;27.00;;
60665;SDS011;59128;44.642;21.188;2022-12-18T01:14:57;36.50;;;26.10;;
60665;SDS011;59128;44.642;21.188;2022-12-18T01:17:23;38.08;;;27.27;;
60665;SDS011;59128;44.642;21.188;2022-12-18T01:19:50;37.57;;;26.67;;
60665;SDS011;59128;44.642;21.188;2022-12-18T01:22:16;39.45;;;28.08;;
60665;SDS011;59128;44.642;21.188;2022-12-18T01:24:42;39.85;;;28.25;;
60665;SDS011;59128;44.642;21.188;2022-12-18T01:27:08;39.15;;;27.83;;
60665;SDS011;59128;44.642;21.188;2022-12-18T01:29:34;37.25;;;26.75;;
60665;SDS011;59128;44.642;21.188;2022-12-18T01:32:00;36.97;;;26.53;;
60665;SDS011;59128;44.642;21.188;2022-12-18T01:34:26;38.35;;;27.77;;
60665;SDS011;59128;44.642;21.188;2022-12-18T01:36:52;38.13;;;27.38;;
60665;SDS011;59128;44.642;21.188;2022-12-18T01:39:18;37.92;;;26.85;;
60665;SDS011;59128;44.642;21.188;2022-12-18T01:41:44;38.00;;;27.52;;
60665;SDS011;59128;44.642;21.188;2022-12-18T01:47:15;38.75;;;27.70;;
60665;SDS011;59128;44.642;21.188;2022-12-18T01:49:44;37.67;;;27.17;;
60665;SDS011;59128;44.642;21.188;2022-12-18T01:52:10;37.90;;;26.20;;
60665;SDS011;59128;44.642;21.188;2022-12-18T01:54:36;38.60;;;26.83;;
60665;SDS011;59128;44.642;21.188;2022-12-18T01:57:02;35.63;;;25.70;;
60665;SDS011;59128;44.642;21.188;2022-12-18T01:59:28;36.63;;;26.10;;
60665;SDS011;59128;44.642;21.188;2022-12-18T02:01:55;37.73;;;27.03;;
60665;SDS011;59128;44.642;21.188;2022-12-18T02:04:23;38.55;;;26.50;;
60665;SDS011;59128;44.642;21.188;2022-12-18T02:06:51;35.72;;;25.67;;
60665;SDS011;59128;44.642;21.188;2022-12-18T02:09:19;39.40;;;27.00;;
60665;SDS011;59128;44.642;21.188;2022-12-18T02:14:38;36.72;;;26.10;;
60665;SDS011;59128;44.642;21.188;2022-12-18T02:19:44;39.67;;;27.43;;
60665;SDS011;59128;44.642;21.188;2022-12-18T02:27:42;39.40;;;28.57;;
60665;SDS011;59128;44.642;21.188;2022-12-18T02:30:10;40.22;;;27.63;;
60665;SDS011;59128;44.642;21.188;2022-12-18T02:32:41;39.33;;;28.13;;
60665;SDS011;59128;44.642;21.188;2022-12-18T02:35:12;38.50;;;27.83;;
60665;SDS011;59128;44.642;21.188;2022-12-18T02:37:39;38.78;;;27.17;;
60665;SDS011;59128;44.642;21.188;2022-12-18T02:40:05;38.53;;;27.05;;
60665;SDS011;59128;44.642;21.188;2022-12-18T02:42:32;38.58;;;26.67;;
60665;SDS011;59128;44.642;21.188;2022-12-18T02:44:58;38.65;;;26.85;;
60665;SDS011;59128;44.642;21.188;2022-12-18T02:47:25;38.65;;;27.33;;
60665;SDS011;59128;44.642;21.188;2022-12-18T02:57:46;40.45;;;27.83;;
60665;SDS011;59128;44.642;21.188;2022-12-18T03:00:08;40.13;;;28.00;;
60665;SDS011;59128;44.642;21.188;2022-12-18T03:02:41;40.53;;;27.92;;
60665;SDS011;59128;44.642;21.188;2022-12-18T03:05:17;39.75;;;27.65;;
60665;SDS011;59128;44.642;21.188;2022-12-18T03:07:51;39.72;;;27.27;;
60665;SDS011;59128;44.642;21.188;2022-12-18T03:10:21;40.67;;;28.45;;
60665;SDS011;59128;44.642;21.188;2022-12-18T03:12:51;41.90;;;29.17;;
60665;SDS011;59128;44.642;21.188;2022-12-18T03:15:20;40.78;;;28.38;;
60665;SDS011;59128;44.642;21.188;2022-12-18T03:17:49;42.17;;;29.60;;
60665;SDS011;59128;44.642;21.188;2022-12-18T03:20:17;41.22;;;28.67;;
60665;SDS011;59128;44.642;21.188;2022-12-18T03:22:45;41.72;;;29.45;;
60665;SDS011;59128;44.642;21.188;2022-12-18T03:25:13;40.67;;;27.73;;
60665;SDS011;59128;44.642;21.188;2022-12-18T03:27:42;40.92;;;28.20;;
60665;SDS011;59128;44.642;21.188;2022-12-18T03:30:10;42.13;;;29.40;;
60665;SDS011;59128;44.642;21.188;2022-12-18T03:35:06;42.72;;;28.88;;
60665;SDS011;59128;44.642;21.188;2022-12-18T03:37:33;40.63;;;27.67;;
60665;SDS011;59128;44.642;21.188;2022-12-18T03:40:00;40.90;;;27.80;;
60665;SDS011;59128;44.642;21.188;2022-12-18T03:42:30;41.17;;;28.08;;
60665;SDS011;59128;44.642;21.188;2022-12-18T03:52:42;38.05;;;26.42;;
60665;SDS011;59128;44.642;21.188;2022-12-18T03:55:10;38.60;;;26.77;;
60665;SDS011;59128;44.642;21.188;2022-12-18T03:57:37;39.85;;;27.42;;
60665;SDS011;59128;44.642;21.188;2022-12-18T04:00:09;41.05;;;28.38;;
60665;SDS011;59128;44.642;21.188;2022-12-18T04:02:35;41.53;;;28.27;;
60665;SDS011;59128;44.642;21.188;2022-12-18T04:05:04;41.38;;;27.65;;
60665;SDS011;59128;44.642;21.188;2022-12-18T04:07:30;40.83;;;27.95;;
60665;SDS011;59128;44.642;21.188;2022-12-18T04:09:57;42.07;;;27.97;;
60665;SDS011;59128;44.642;21.188;2022-12-18T04:12:25;41.53;;;27.38;;
60665;SDS011;59128;44.642;21.188;2022-12-18T04:14:51;40.40;;;27.97;;
60665;SDS011;59128;44.642;21.188;2022-12-18T04:17:17;38.92;;;27.23;;
60665;SDS011;59128;44.642;21.188;2022-12-18T04:19:43;41.20;;;28.35;;
60665;SDS011;59128;44.642;21.188;2022-12-18T04:22:10;38.78;;;27.33;;
60665;SDS011;59128;44.642;21.188;2022-12-18T04:24:36;44.72;;;31.48;;
60665;SDS011;59128;44.642;21.188;2022-12-18T04:27:02;45.50;;;31.08;;
60665;SDS011;59128;44.642;21.188;2022-12-18T04:29:28;42.90;;;29.83;;
60665;SDS011;59128;44.642;21.188;2022-12-18T04:31:54;42.70;;;29.27;;
60665;SDS011;59128;44.642;21.188;2022-12-18T04:34:20;42.33;;;28.08;;
60665;SDS011;59128;44.642;21.188;2022-12-18T04:36:49;41.97;;;29.08;;
60665;SDS011;59128;44.642;21.188;2022-12-18T04:39:15;41.17;;;28.15;;
60665;SDS011;59128;44.642;21.188;2022-12-18T04:41:44;39.08;;;27.33;;
60665;SDS011;59128;44.642;21.188;2022-12-18T04:44:10;40.17;;;27.75;;
60665;SDS011;59128;44.642;21.188;2022-12-18T04:46:36;39.72;;;28.50;;
60665;SDS011;59128;44.642;21.188;2022-12-18T04:49:02;39.38;;;27.25;;
60665;SDS011;59128;44.642;21.188;2022-12-18T04:51:28;39.90;;;27.65;;
60665;SDS011;59128;44.642;21.188;2022-12-18T04:53:54;56.45;;;37.58;;
60665;SDS011;59128;44.642;21.188;2022-12-18T04:56:20;41.38;;;29.10;;
60665;SDS011;59128;44.642;21.188;2022-12-18T04:58:46;39.47;;;27.58;;
60665;SDS011;59128;44.642;21.188;2022-12-18T05:01:13;39.65;;;27.70;;
60665;SDS011;59128;44.642;21.188;2022-12-18T05:03:40;40.60;;;28.35;;
60665;SDS011;59128;44.642;21.188;2022-12-18T05:06:06;38.45;;;26.75;;
60665;SDS011;59128;44.642;21.188;2022-12-18T05:08:32;38.22;;;26.60;;
60665;SDS011;59128;44.642;21.188;2022-12-18T05:11:02;39.83;;;27.03;;
60665;SDS011;59128;44.642;21.188;2022-12-18T05:13:29;39.20;;;27.40;;
60665;SDS011;59128;44.642;21.188;2022-12-18T05:15:55;40.53;;;27.38;;
60665;SDS011;59128;44.642;21.188;2022-12-18T05:18:22;39.25;;;27.60;;
60665;SDS011;59128;44.642;21.188;2022-12-18T05:20:49;39.38;;;26.88;;
60665;SDS011;59128;44.642;21.188;2022-12-18T05:23:15;37.95;;;26.73;;
60665;SDS011;59128;44.642;21.188;2022-12-18T05:25:41;39.88;;;27.30;;
60665;SDS011;59128;44.642;21.188;2022-12-18T05:28:07;41.45;;;27.13;;
60665;SDS011;59128;44.642;21.188;2022-12-18T05:30:33;39.40;;;27.60;;
60665;SDS011;59128;44.642;21.188;2022-12-18T05:32:59;37.83;;;26.42;;
60665;SDS011;59128;44.642;21.188;2022-12-18T05:35:25;40.50;;;27.97;;
60665;SDS011;59128;44.642;21.188;2022-12-18T05:37:51;42.72;;;28.52;;
60665;SDS011;59128;44.642;21.188;2022-12-18T05:40:17;39.00;;;27.50;;
60665;SDS011;59128;44.642;21.188;2022-12-18T05:42:43;40.42;;;27.38;;
60665;SDS011;59128;44.642;21.188;2022-12-18T05:45:09;42.40;;;28.60;;
60665;SDS011;59128;44.642;21.188;2022-12-18T05:47:35;39.92;;;27.75;;
60665;SDS011;59128;44.642;21.188;2022-12-18T05:50:01;39.60;;;27.65;;
60665;SDS011;59128;44.642;21.188;2022-12-18T05:52:27;38.83;;;27.23;;
60665;SDS011;59128;44.642;21.188;2022-12-18T05:54:53;39.70;;;28.27;;
60665;SDS011;59128;44.642;21.188;2022-12-18T05:57:20;40.10;;;27.70;;
60665;SDS011;59128;44.642;21.188;2022-12-18T05:59:46;46.58;;;31.58;;
60665;SDS011;59128;44.642;21.188;2022-12-18T06:02:12;44.13;;;32.38;;
60665;SDS011;59128;44.642;21.188;2022-12-18T06:04:38;44.70;;;31.73;;
60665;SDS011;59128;44.642;21.188;2022-12-18T06:07:04;47.83;;;33.97;;
60665;SDS011;59128;44.642;21.188;2022-12-18T06:09:30;41.97;;;28.48;;
60665;SDS011;59128;44.642;21.188;2022-12-18T06:11:57;43.88;;;30.83;;
60665;SDS011;59128;44.642;21.188;2022-12-18T06:14:23;46.22;;;32.72;;
60665;SDS011;59128;44.642;21.188;2022-12-18T06:16:50;46.72;;;33.75;;
60665;SDS011;59128;44.642;21.188;2022-12-18T06:19:17;42.70;;;30.27;;
60665;SDS011;59128;44.642;21.188;2022-12-18T06:21:43;43.17;;;29.42;;
60665;SDS011;59128;44.642;21.188;2022-12-18T06:24:09;43.65;;;29.77;;
60665;SDS011;59128;44.642;21.188;2022-12-18T06:26:38;40.35;;;28.85;;
60665;SDS011;59128;44.642;21.188;2022-12-18T06:29:05;41.67;;;29.40;;
60665;SDS011;59128;44.642;21.188;2022-12-18T06:31:31;41.42;;;28.50;;
60665;SDS011;59128;44.642;21.188;2022-12-18T06:33:57;42.20;;;28.60;;
60665;SDS011;59128;44.642;21.188;2022-12-18T06:36:23;42.53;;;29.52;;
60665;SDS011;59128;44.642;21.188;2022-12-18T06:38:49;43.47;;;29.30;;
60665;SDS011;59128;44.642;21.188;2022-12-18T06:41:17;42.10;;;28.67;;
60665;SDS011;59128;44.642;21.188;2022-12-18T06:43:43;44.05;;;29.08;;
60665;SDS011;59128;44.642;21.188;2022-12-18T06:46:10;41.35;;;28.92;;
60665;SDS011;59128;44.642;21.188;2022-12-18T06:48:36;41.63;;;28.93;;
60665;SDS011;59128;44.642;21.188;2022-12-18T06:51:02;43.85;;;28.55;;
60665;SDS011;59128;44.642;21.188;2022-12-18T06:53:28;43.77;;;30.47;;
60665;SDS011;59128;44.642;21.188;2022-12-18T06:56:04;40.95;;;28.40;;
60665;SDS011;59128;44.642;21.188;2022-12-18T06:58:31;42.40;;;29.08;;
60665;SDS011;59128;44.642;21.188;2022-12-18T07:01:00;40.43;;;28.87;;
60665;SDS011;59128;44.642;21.188;2022-12-18T07:03:27;39.53;;;28.17;;
60665;SDS011;59128;44.642;21.188;2022-12-18T07:05:53;42.30;;;29.33;;
60665;SDS011;59128;44.642;21.188;2022-12-18T07:08:19;42.37;;;30.10;;
60665;SDS011;59128;44.642;21.188;2022-12-18T07:10:45;41.35;;;28.95;;
60665;SDS011;59128;44.642;21.188;2022-12-18T07:13:11;42.53;;;29.20;;
60665;SDS011;59128;44.642;21.188;2022-12-18T07:15:37;40.72;;;29.02;;
60665;SDS011;59128;44.642;21.188;2022-12-18T07:18:03;43.05;;;29.20;;
60665;SDS011;59128;44.642;21.188;2022-12-18T07:20:29;43.67;;;29.42;;
60665;SDS011;59128;44.642;21.188;2022-12-18T07:22:55;46.03;;;30.45;;
60665;SDS011;59128;44.642;21.188;2022-12-18T07:25:21;43.58;;;30.23;;
60665;SDS011;59128;44.642;21.188;2022-12-18T07:27:47;53.08;;;35.28;;
60665;SDS011;59128;44.642;21.188;2022-12-18T07:30:13;49.40;;;33.67;;
60665;SDS011;59128;44.642;21.188;2022-12-18T07:32:39;47.33;;;31.40;;
60665;SDS011;59128;44.642;21.188;2022-12-18T07:35:05;43.65;;;29.88;;
60665;SDS011;59128;44.642;21.188;2022-12-18T07:37:31;46.30;;;33.10;;
60665;SDS011;59128;44.642;21.188;2022-12-18T07:39:57;45.28;;;31.48;;
60665;SDS011;59128;44.642;21.188;2022-12-18T07:42:23;45.58;;;30.90;;
60665;SDS011;59128;44.642;21.188;2022-12-18T07:44:55;46.72;;;30.77;;
60665;SDS011;59128;44.642;21.188;2022-12-18T07:47:21;45.28;;;30.67;;
60665;SDS011;59128;44.642;21.188;2022-12-18T07:49:47;46.35;;;32.03;;
60665;SDS011;59128;44.642;21.188;2022-12-18T07:52:14;48.47;;;33.05;;
60665;SDS011;59128;44.642;21.188;2022-12-18T07:54:40;50.60;;;34.85;;
60665;SDS011;59128;44.642;21.188;2022-12-18T07:57:06;45.72;;;31.73;;
60665;SDS011;59128;44.642;21.188;2022-12-18T07:59:33;48.92;;;33.50;;
60665;SDS011;59128;44.642;21.188;2022-12-18T08:01:59;45.63;;;31.27;;
60665;SDS011;59128;44.642;21.188;2022-12-18T08:04:25;47.65;;;32.00;;
60665;SDS011;59128;44.642;21.188;2022-12-18T08:06:51;45.77;;;31.03;;
60665;SDS011;59128;44.642;21.188;2022-12-18T08:09:17;47.88;;;33.95;;
60665;SDS011;59128;44.642;21.188;2022-12-18T08:11:43;42.88;;;29.83;;
60665;SDS011;59128;44.642;21.188;2022-12-18T08:14:09;44.50;;;31.05;;
60665;SDS011;59128;44.642;21.188;2022-12-18T08:16:36;43.33;;;30.02;;
60665;SDS011;59128;44.642;21.188;2022-12-18T08:19:02;43.55;;;29.52;;
60665;SDS011;59128;44.642;21.188;2022-12-18T08:21:29;44.70;;;30.30;;
60665;SDS011;59128;44.642;21.188;2022-12-18T08:23:56;41.05;;;30.05;;
60665;SDS011;59128;44.642;21.188;2022-12-18T08:26:22;40.78;;;29.35;;
60665;SDS011;59128;44.642;21.188;2022-12-18T08:28:49;47.50;;;31.95;;
60665;SDS011;59128;44.642;21.188;2022-12-18T08:31:16;39.03;;;28.65;;
60665;SDS011;59128;44.642;21.188;2022-12-18T08:33:42;40.42;;;29.48;;
60665;SDS011;59128;44.642;21.188;2022-12-18T08:36:08;38.38;;;28.60;;
60665;SDS011;59128;44.642;21.188;2022-12-18T08:38:35;37.90;;;28.27;;
60665;SDS011;59128;44.642;21.188;2022-12-18T08:41:05;38.00;;;28.52;;
60665;SDS011;59128;44.642;21.188;2022-12-18T08:43:31;38.75;;;29.27;;
60665;SDS011;59128;44.642;21.188;2022-12-18T08:46:16;40.10;;;29.03;;
60665;SDS011;59128;44.642;21.188;2022-12-18T08:48:43;37.40;;;29.27;;
60665;SDS011;59128;44.642;21.188;2022-12-18T08:51:09;37.72;;;28.85;;
60665;SDS011;59128;44.642;21.188;2022-12-18T08:53:37;38.40;;;28.80;;
60665;SDS011;59128;44.642;21.188;2022-12-18T08:56:03;40.93;;;31.83;;
60665;SDS011;59128;44.642;21.188;2022-12-18T08:58:30;41.33;;;30.92;;
60665;SDS011;59128;44.642;21.188;2022-12-18T09:01:05;41.92;;;30.35;;
60665;SDS011;59128;44.642;21.188;2022-12-18T09:03:32;51.30;;;40.10;;
60665;SDS011;59128;44.642;21.188;2022-12-18T09:05:58;43.35;;;31.98;;
60665;SDS011;59128;44.642;21.188;2022-12-18T09:08:24;44.90;;;33.97;;
60665;SDS011;59128;44.642;21.188;2022-12-18T09:10:50;41.70;;;30.57;;
60665;SDS011;59128;44.642;21.188;2022-12-18T09:13:17;42.80;;;31.45;;
60665;SDS011;59128;44.642;21.188;2022-12-18T09:15:47;42.03;;;30.27;;
60665;SDS011;59128;44.642;21.188;2022-12-18T09:18:14;41.97;;;29.50;;
60665;SDS011;59128;44.642;21.188;2022-12-18T09:20:40;41.65;;;29.60;;
60665;SDS011;59128;44.642;21.188;2022-12-18T09:23:06;40.60;;;29.75;;
60665;SDS011;59128;44.642;21.188;2022-12-18T09:25:33;42.95;;;29.77;;
60665;SDS011;59128;44.642;21.188;2022-12-18T09:28:01;42.45;;;30.17;;
60665;SDS011;59128;44.642;21.188;2022-12-18T09:30:27;39.90;;;29.30;;
60665;SDS011;59128;44.642;21.188;2022-12-18T09:32:53;41.72;;;29.30;;
60665;SDS011;59128;44.642;21.188;2022-12-18T09:35:19;40.80;;;29.20;;
60665;SDS011;59128;44.642;21.188;2022-12-18T09:37:45;44.77;;;29.53;;
60665;SDS011;59128;44.642;21.188;2022-12-18T09:40:18;40.60;;;29.58;;
60665;SDS011;59128;44.642;21.188;2022-12-18T09:42:45;40.75;;;29.00;;
60665;SDS011;59128;44.642;21.188;2022-12-18T09:45:13;40.07;;;28.50;;
60665;SDS011;59128;44.642;21.188;2022-12-18T09:47:39;39.97;;;28.38;;
60665;SDS011;59128;44.642;21.188;2022-12-18T09:50:15;41.47;;;29.20;;
60665;SDS011;59128;44.642;21.188;2022-12-18T09:52:47;39.03;;;27.93;;
60665;SDS011;59128;44.642;21.188;2022-12-18T09:57:47;40.38;;;28.33;;
60665;SDS011;59128;44.642;21.188;2022-12-18T10:00:22;39.10;;;27.23;;
60665;SDS011;59128;44.642;21.188;2022-12-18T10:02:50;40.03;;;27.92;;
60665;SDS011;59128;44.642;21.188;2022-12-18T10:05:20;40.55;;;29.83;;
60665;SDS011;59128;44.642;21.188;2022-12-18T10:15:41;40.22;;;28.52;;
60665;SDS011;59128;44.642;21.188;2022-12-18T10:20:43;44.22;;;30.65;;
60665;SDS011;59128;44.642;21.188;2022-12-18T10:26:03;41.33;;;29.48;;
60665;SDS011;59128;44.642;21.188;2022-12-18T10:28:29;43.20;;;29.40;;
60665;SDS011;59128;44.642;21.188;2022-12-18T10:30:56;43.97;;;30.00;;
60665;SDS011;59128;44.642;21.188;2022-12-18T10:33:23;48.50;;;32.00;;
60665;SDS011;59128;44.642;21.188;2022-12-18T10:35:51;46.73;;;31.83;;
60665;SDS011;59128;44.642;21.188;2022-12-18T10:40:51;46.70;;;31.50;;
60665;SDS011;59128;44.642;21.188;2022-12-18T10:43:23;42.78;;;30.05;;
60665;SDS011;59128;44.642;21.188;2022-12-18T10:45:58;43.97;;;30.25;;
60665;SDS011;59128;44.642;21.188;2022-12-18T10:48:25;44.60;;;30.38;;
60665;SDS011;59128;44.642;21.188;2022-12-18T10:50:51;44.80;;;30.42;;
60665;SDS011;59128;44.642;21.188;2022-12-18T10:53:24;45.20;;;29.85;;
60665;SDS011;59128;44.642;21.188;2022-12-18T10:55:52;43.65;;;30.70;;
60665;SDS011;59128;44.642;21.188;2022-12-18T10:58:26;45.47;;;32.15;;
60665;SDS011;59128;44.642;21.188;2022-12-18T11:01:02;44.80;;;30.70;;
60665;SDS011;59128;44.642;21.188;2022-12-18T11:04:16;42.03;;;30.23;;
60665;SDS011;59128;44.642;21.188;2022-12-18T11:06:16;42.10;;;29.23;;
60665;SDS011;59128;44.642;21.188;2022-12-18T11:08:43;43.15;;;30.27;;
60665;SDS011;59128;44.642;21.188;2022-12-18T11:11:20;41.55;;;29.63;;
60665;SDS011;59128;44.642;21.188;2022-12-18T11:14:05;45.03;;;30.63;;
60665;SDS011;59128;44.642;21.188;2022-12-18T11:16:33;44.20;;;30.83;;
60665;SDS011;59128;44.642;21.188;2022-12-18T11:21:56;46.25;;;31.70;;
60665;SDS011;59128;44.642;21.188;2022-12-18T11:26:49;47.95;;;32.15;;
60665;SDS011;59128;44.642;21.188;2022-12-18T11:29:16;44.63;;;30.13;;
60665;SDS011;59128;44.642;21.188;2022-12-18T11:31:43;46.60;;;32.10;;
60665;SDS011;59128;44.642;21.188;2022-12-18T11:34:13;50.40;;;33.42;;
60665;SDS011;59128;44.642;21.188;2022-12-18T11:36:42;56.17;;;37.13;;
60665;SDS011;59128;44.642;21.188;2022-12-18T11:39:11;46.67;;;32.03;;
60665;SDS011;59128;44.642;21.188;2022-12-18T11:41:45;47.50;;;32.80;;
60665;SDS011;59128;44.642;21.188;2022-12-18T11:49:44;47.50;;;31.95;;
60665;SDS011;59128;44.642;21.188;2022-12-18T11:54:42;43.00;;;30.25;;
60665;SDS011;59128;44.642;21.188;2022-12-18T11:57:23;43.90;;;30.20;;
60665;SDS011;59128;44.642;21.188;2022-12-18T12:10:14;43.35;;;29.77;;
60665;SDS011;59128;44.642;21.188;2022-12-18T12:15:20;39.58;;;28.00;;
60665;SDS011;59128;44.642;21.188;2022-12-18T12:35:38;36.38;;;25.70;;
60665;SDS011;59128;44.642;21.188;2022-12-18T12:38:13;37.90;;;26.42;;
60665;SDS011;59128;44.642;21.188;2022-12-18T12:40:45;37.38;;;25.42;;
60665;SDS011;59128;44.642;21.188;2022-12-18T12:43:20;42.95;;;29.05;;
60665;SDS011;59128;44.642;21.188;2022-12-18T12:45:48;54.70;;;36.20;;
60665;SDS011;59128;44.642;21.188;2022-12-18T12:51:02;39.40;;;27.02;;
60665;SDS011;59128;44.642;21.188;2022-12-18T12:53:30;38.92;;;26.65;;
60665;SDS011;59128;44.642;21.188;2022-12-18T12:55:58;66.20;;;44.10;;
60665;SDS011;59128;44.642;21.188;2022-12-18T13:05:57;61.17;;;41.08;;
60665;SDS011;59128;44.642;21.188;2022-12-18T13:10:50;57.33;;;37.10;;
60665;SDS011;59128;44.642;21.188;2022-12-18T13:13:55;47.72;;;34.80;;
60665;SDS011;59128;44.642;21.188;2022-12-18T13:16:22;58.35;;;38.03;;
60665;SDS011;59128;44.642;21.188;2022-12-18T13:18:57;43.42;;;29.17;;
60665;SDS011;59128;44.642;21.188;2022-12-18T13:21:25;47.55;;;32.35;;
60665;SDS011;59128;44.642;21.188;2022-12-18T13:23:52;58.60;;;41.22;;
60665;SDS011;59128;44.642;21.188;2022-12-18T13:31:11;48.72;;;34.58;;
60665;SDS011;59128;44.642;21.188;2022-12-18T13:33:44;44.00;;;31.48;;
60665;SDS011;59128;44.642;21.188;2022-12-18T13:41:33;40.50;;;28.93;;
60665;SDS011;59128;44.642;21.188;2022-12-18T13:44:10;41.50;;;29.23;;
60665;SDS011;59128;44.642;21.188;2022-12-18T13:46:44;40.90;;;28.73;;
60665;SDS011;59128;44.642;21.188;2022-12-18T13:51:39;45.00;;;30.35;;
60665;SDS011;59128;44.642;21.188;2022-12-18T13:56:43;46.00;;;30.88;;
60665;SDS011;59128;44.642;21.188;2022-12-18T14:01:45;50.33;;;34.83;;
60665;SDS011;59128;44.642;21.188;2022-12-18T14:04:16;43.13;;;29.38;;
60665;SDS011;59128;44.642;21.188;2022-12-18T14:06:43;48.22;;;32.72;;
60665;SDS011;59128;44.642;21.188;2022-12-18T14:09:13;48.58;;;32.05;;
60665;SDS011;59128;44.642;21.188;2022-12-18T14:11:39;45.90;;;31.83;;
60665;SDS011;59128;44.642;21.188;2022-12-18T14:14:06;47.85;;;32.75;;
60665;SDS011;59128;44.642;21.188;2022-12-18T14:16:32;55.65;;;38.15;;
60665;SDS011;59128;44.642;21.188;2022-12-18T14:18:59;47.28;;;32.78;;
60665;SDS011;59128;44.642;21.188;2022-12-18T14:21:26;49.03;;;31.23;;
60665;SDS011;59128;44.642;21.188;2022-12-18T14:24:12;47.53;;;33.00;;
60665;SDS011;59128;44.642;21.188;2022-12-18T14:26:40;42.80;;;28.55;;
60665;SDS011;59128;44.642;21.188;2022-12-18T14:29:25;44.78;;;29.85;;
60665;SDS011;59128;44.642;21.188;2022-12-18T14:34:51;61.27;;;42.10;;
60665;SDS011;59128;44.642;21.188;2022-12-18T14:37:22;49.20;;;33.60;;
60665;SDS011;59128;44.642;21.188;2022-12-18T14:39:55;43.50;;;29.30;;
60665;SDS011;59128;44.642;21.188;2022-12-18T14:42:22;42.63;;;29.65;;
60665;SDS011;59128;44.642;21.188;2022-12-18T14:45:17;62.97;;;42.60;;
60665;SDS011;59128;44.642;21.188;2022-12-18T14:47:38;62.23;;;43.33;;
60665;SDS011;59128;44.642;21.188;2022-12-18T14:50:12;59.10;;;40.05;;
60665;SDS011;59128;44.642;21.188;2022-12-18T14:52:39;59.55;;;40.60;;
60665;SDS011;59128;44.642;21.188;2022-12-18T14:55:05;49.47;;;33.63;;
60665;SDS011;59128;44.642;21.188;2022-12-18T14:57:36;52.05;;;35.67;;
60665;SDS011;59128;44.642;21.188;2022-12-18T15:00:06;52.78;;;34.72;;
60665;SDS011;59128;44.642;21.188;2022-12-18T15:02:34;43.78;;;30.23;;
60665;SDS011;59128;44.642;21.188;2022-12-18T15:05:02;41.70;;;27.90;;
60665;SDS011;59128;44.642;21.188;2022-12-18T15:07:39;39.65;;;26.52;;
60665;SDS011;59128;44.642;21.188;2022-12-18T15:10:16;45.72;;;31.50;;
60665;SDS011;59128;44.642;21.188;2022-12-18T15:20:28;44.72;;;30.33;;
60665;SDS011;59128;44.642;21.188;2022-12-18T15:22:57;46.20;;;30.45;;
60665;SDS011;59128;44.642;21.188;2022-12-18T15:25:34;43.63;;;29.93;;
60665;SDS011;59128;44.642;21.188;2022-12-18T15:28:01;67.80;;;46.53;;
60665;SDS011;59128;44.642;21.188;2022-12-18T15:30:28;42.33;;;28.50;;
60665;SDS011;59128;44.642;21.188;2022-12-18T15:33:16;69.72;;;47.97;;
60665;SDS011;59128;44.642;21.188;2022-12-18T15:35:40;62.58;;;44.75;;
60665;SDS011;59128;44.642;21.188;2022-12-18T15:38:06;51.05;;;36.10;;
60665;SDS011;59128;44.642;21.188;2022-12-18T15:40:32;40.15;;;26.30;;
60665;SDS011;59128;44.642;21.188;2022-12-18T15:42:59;44.92;;;30.65;;
60665;SDS011;59128;44.642;21.188;2022-12-18T15:45:43;40.95;;;27.80;;
60665;SDS011;59128;44.642;21.188;2022-12-18T15:48:28;40.05;;;26.90;;
60665;SDS011;59128;44.642;21.188;2022-12-18T15:50:55;42.58;;;29.58;;
60665;SDS011;59128;44.642;21.188;2022-12-18T15:53:22;44.85;;;30.50;;
60665;SDS011;59128;44.642;21.188;2022-12-18T15:55:49;44.75;;;31.25;;
60665;SDS011;59128;44.642;21.188;2022-12-18T15:58:34;44.88;;;30.10;;
60665;SDS011;59128;44.642;21.188;2022-12-18T16:01:00;45.78;;;31.42;;
60665;SDS011;59128;44.642;21.188;2022-12-18T16:03:27;49.67;;;33.10;;
60665;SDS011;59128;44.642;21.188;2022-12-18T16:05:53;52.97;;;36.03;;
60665;SDS011;59128;44.642;21.188;2022-12-18T16:08:19;57.97;;;39.63;;
60665;SDS011;59128;44.642;21.188;2022-12-18T16:10:45;64.70;;;42.67;;
60665;SDS011;59128;44.642;21.188;2022-12-18T16:13:15;73.63;;;51.00;;
60665;SDS011;59128;44.642;21.188;2022-12-18T16:15:41;62.50;;;43.58;;
60665;SDS011;59128;44.642;21.188;2022-12-18T16:18:07;55.05;;;37.53;;
60665;SDS011;59128;44.642;21.188;2022-12-18T16:20:33;50.95;;;36.38;;
60665;SDS011;59128;44.642;21.188;2022-12-18T16:22:59;48.23;;;33.27;;
60665;SDS011;59128;44.642;21.188;2022-12-18T16:25:26;45.45;;;30.65;;
60665;SDS011;59128;44.642;21.188;2022-12-18T16:27:53;43.22;;;29.48;;
60665;SDS011;59128;44.642;21.188;2022-12-18T16:30:27;43.67;;;31.02;;